Flight Track Log - Related Links

Times and Time Zones

All times are in EDT time to prevent confusion due to time zone crossing. See the N730C flight status page for this flight to view local times or setup timezone preferences in your user account.

Time Position Orientation Groundspeed Altitude Reporting Facility
EDT Latitude Longitude Course Direction KTS MPH feet Rate Location/Type
Sat 09:56:42 AM 34.0500 -83.7667 79° East 138 159 6,600  Level Atlanta TRACON
Sat 09:57:36 AM 34.0667 -83.7333 59° Northeast 133 153 7,300 551 Climbing Atlanta TRACON
Sat 09:58:20 AM 34.0903 -83.6953 53° Northeast 153 176 7,500 115 Climbing Atlanta Center
Sat 09:59:20 AM 34.1006 -83.6425 77° East 171 197 7,500  Level Atlanta Center
Sat 10:00:20 AM 34.1169 -83.5922 68° East 189 217 7,500  Level Atlanta Center
Sat 10:01:20 AM 34.1333 -83.5469 66° East 175 201 7,500  Level Atlanta Center
Sat 10:02:00 AM 33.8818 -83.7090 79° East  Level FlightAware Approximate
Sat 10:02:20 AM 34.1519 -83.4967 66° East 163 188 7,500  Level Atlanta Center
Sat 10:03:20 AM 34.1706 -83.4464 66° East 163 188 7,500  Level Atlanta Center
Sat 10:04:20 AM 34.1892 -83.3958 66° East 158 182 7,500  Level Atlanta Center
Sat 10:05:20 AM 34.2056 -83.3456 68° East 158 182 7,500  Level Atlanta Center
Sat 10:06:20 AM 34.2283 -83.2975 60° Northeast 158 182 7,500  Level Atlanta Center
Sat 10:07:20 AM 34.2467 -83.2472 66° East 158 182 7,500  Level Atlanta Center
Sat 10:08:20 AM 34.2653 -83.1992 65° Northeast 153 176 7,500  Level Atlanta Center
Sat 10:09:20 AM 34.2814 -83.1464 70° East 153 176 7,500  Level Atlanta Center
Sat 10:10:20 AM 34.3000 -83.0983 65° Northeast 153 176 7,500  Level Atlanta Center
Sat 10:11:20 AM 34.3203 -83.0428 66° East 160 184 7,500  Level Atlanta Center
Sat 10:12:20 AM 34.3367 -82.9997 65° Northeast 160 184 7,500  Level Atlanta Center
Sat 10:13:20 AM 34.3592 -82.9367 67° East 165 190 7,500  Level Atlanta Center
Sat 10:14:20 AM 34.3794 -82.8886 63° Northeast 160 184 7,500  Level Atlanta Center
Sat 10:15:20 AM 34.3978 -82.8381 66° East 160 184 7,500  Level Atlanta Center
Sat 10:16:20 AM 34.4078 -82.7825 78° East 160 184 7,500  Level Atlanta Center
Sat 10:17:20 AM 34.4197 -82.7269 75° East 160 184 7,500 -50 Level Atlanta Center
Sat 10:18:20 AM 34.4400 -82.6761 64° Northeast 165 190 7,400 -350 Descending Atlanta Center
Sat 10:19:20 AM 34.4664 -82.6253 58° Northeast 165 190 6,800 -600 Descending Atlanta Center
Sat 10:20:20 AM 34.4972 -82.5794 51° Northeast 176 203 6,200 -600 Descending Atlanta Center
Sat 10:22:00 AM 34.5578 -82.4996 59° Northeast  Level Estimated
Sat 10:29:00 AM 34.8058 -82.1552 59° Northeast  Level FlightAware Approximate
Sat 10:30:00 AM 34.8167 -82.1333 59° Northeast  Level FlightAware Approximate
Sat 10:31:00 AM 34.8229 -82.1482 59° Northeast  Level Estimated
Sat 10:32:00 AM 34.8229 -82.1482 59° Northeast  Level Estimated
Sat 10:33:00 AM 34.8229 -82.1482 59° Northeast  Level Estimated
Sat 10:34:00 AM 34.8229 -82.1482 59° Northeast  Level Estimated
Sat 10:35:00 AM 34.8229 -82.1482 59° Northeast  Level Estimated
Sat 10:36:00 AM 34.8229 -82.1482 59° Northeast  Level Estimated
Sat 10:37:00 AM 34.8229 -82.1482 59° Northeast  Level Estimated
Sat 10:38:00 AM 34.8229 -82.1482 59° Northeast  Level Estimated
Sat 10:39:00 AM 34.8229 -82.1482 59° Northeast  Level Estimated
Sat 10:40:00 AM 34.8229 -82.1482 59° Northeast  Level Estimated
Sat 10:41:00 AM 34.8229 -82.1482 59° Northeast  Level Estimated

Login

Don't have an account? Register now (free) for customized features, flight alerts, and more!